createdAt,value
2019-03-01T00:02:00.000Z,98293
2019-03-01T00:07:00.000Z,98288
2019-03-01T00:12:00.000Z,98295
2019-03-01T00:17:00.000Z,98270
2019-03-01T00:22:00.000Z,98281
2019-03-01T00:27:00.000Z,98285
2019-03-01T00:32:00.000Z,98299
2019-03-01T00:37:00.000Z,98313
2019-03-01T00:42:00.000Z,98313
2019-03-01T00:47:00.000Z,98324
2019-03-01T00:52:00.000Z,98316
2019-03-01T00:57:00.000Z,98319
2019-03-01T01:02:00.000Z,98321
2019-03-01T01:07:00.000Z,98313
2019-03-01T01:12:00.000Z,98325
2019-03-01T01:17:00.000Z,98334
2019-03-01T01:22:00.000Z,98330
2019-03-01T01:27:00.000Z,98334
2019-03-01T01:32:00.000Z,98320
2019-03-01T01:37:00.000Z,98316
2019-03-01T01:42:00.000Z,98315
2019-03-01T01:47:00.000Z,98311
2019-03-01T01:52:00.000Z,98324
2019-03-01T01:57:00.000Z,98311
2019-03-01T02:02:00.000Z,98309
2019-03-01T02:07:00.000Z,98301
2019-03-01T02:12:00.000Z,98280
2019-03-01T02:17:00.000Z,98255
2019-03-01T02:22:00.000Z,98242
2019-03-01T02:27:00.000Z,98250
2019-03-01T02:33:00.000Z,98238
2019-03-01T02:38:00.000Z,98260
2019-03-01T02:43:00.000Z,98257
2019-03-01T02:48:00.000Z,98232
2019-03-01T02:53:00.000Z,98239
2019-03-01T02:58:00.000Z,98238
2019-03-01T03:03:00.000Z,98241
2019-03-01T03:08:00.000Z,98257
2019-03-01T03:13:00.000Z,98253
2019-03-01T03:18:00.000Z,98266
2019-03-01T03:23:00.000Z,98271
2019-03-01T03:28:00.000Z,98275
2019-03-01T03:33:00.000Z,98262
2019-03-01T03:38:00.000Z,98270
2019-03-01T03:43:00.000Z,98281
2019-03-01T03:48:00.000Z,98262
2019-03-01T03:53:00.000Z,98283
2019-03-01T03:58:00.000Z,98267
2019-03-01T04:03:00.000Z,98276
2019-03-01T04:08:00.000Z,98276
2019-03-01T04:13:00.000Z,98279
2019-03-01T04:18:00.000Z,98294
2019-03-01T04:23:00.000Z,98288
2019-03-01T04:28:00.000Z,98280
2019-03-01T04:33:00.000Z,98282
2019-03-01T04:38:00.000Z,98282
2019-03-01T04:43:00.000Z,98287
2019-03-01T04:48:00.000Z,98277
2019-03-01T04:53:00.000Z,98272
2019-03-01T04:58:00.000Z,98259
2019-03-01T05:03:00.000Z,98250
2019-03-01T05:08:00.000Z,98258
2019-03-01T05:13:00.000Z,98262
2019-03-01T05:18:00.000Z,98271
2019-03-01T05:23:00.000Z,98288
2019-03-01T05:28:00.000Z,98286
2019-03-01T05:33:00.000Z,98305
2019-03-01T05:38:00.000Z,98290
2019-03-01T05:43:00.000Z,98296
2019-03-01T05:48:00.000Z,98280
2019-03-01T05:53:00.000Z,98283
2019-03-01T05:58:00.000Z,98286
2019-03-01T06:03:00.000Z,98276
2019-03-01T06:08:00.000Z,98275
2019-03-01T06:13:00.000Z,98253
2019-03-01T06:18:00.000Z,98265
2019-03-01T06:23:00.000Z,98278
2019-03-01T06:28:00.000Z,98265
2019-03-01T06:33:00.000Z,98272
2019-03-01T06:38:00.000Z,98271
2019-03-01T06:43:00.000Z,98282
2019-03-01T06:48:00.000Z,98282
2019-03-01T06:53:00.000Z,98282
2019-03-01T06:58:00.000Z,98280
2019-03-01T07:03:00.000Z,98292
2019-03-01T07:08:00.000Z,98274
2019-03-01T07:13:00.000Z,98269
2019-03-01T07:18:00.000Z,98273
2019-03-01T07:23:00.000Z,98275
2019-03-01T07:28:00.000Z,98273
2019-03-01T07:33:00.000Z,98266
2019-03-01T07:38:00.000Z,98268
2019-03-01T07:43:00.000Z,98288
2019-03-01T07:48:00.000Z,98286
2019-03-01T07:53:00.000Z,98284
2019-03-01T07:58:00.000Z,98290
2019-03-01T08:03:00.000Z,98292
2019-03-01T08:08:00.000Z,98298
2019-03-01T08:13:00.000Z,98277
2019-03-01T08:18:00.000Z,98288
2019-03-01T08:23:00.000Z,98279
2019-03-01T08:28:00.000Z,98284
2019-03-01T08:33:00.000Z,98269
2019-03-01T08:39:00.000Z,98273
2019-03-01T08:44:00.000Z,98279
2019-03-01T08:49:00.000Z,98279
2019-03-01T08:54:00.000Z,98284
2019-03-01T08:59:00.000Z,98281
2019-03-01T09:04:00.000Z,98280
2019-03-01T09:09:00.000Z,98262
2019-03-01T09:14:00.000Z,98260
2019-03-01T09:19:00.000Z,98267
2019-03-01T09:24:00.000Z,98249
2019-03-01T09:29:00.000Z,98260
2019-03-01T09:34:00.000Z,98261
2019-03-01T09:39:00.000Z,98244
2019-03-01T09:44:00.000Z,98242
2019-03-01T09:49:00.000Z,98241
2019-03-01T09:54:00.000Z,98243
2019-03-01T09:59:00.000Z,98237
2019-03-01T10:04:00.000Z,98229
2019-03-01T10:09:00.000Z,98236
2019-03-01T10:14:00.000Z,98225
2019-03-01T10:19:00.000Z,98248
2019-03-01T10:24:00.000Z,98248
2019-03-01T10:29:00.000Z,98237
2019-03-01T10:34:00.000Z,98246
2019-03-01T10:39:00.000Z,98256
2019-03-01T10:44:00.000Z,98241
2019-03-01T10:49:00.000Z,98231
2019-03-01T10:54:00.000Z,98232
2019-03-01T10:59:00.000Z,98221
2019-03-01T11:04:00.000Z,98214
2019-03-01T11:10:00.000Z,98235
2019-03-01T11:15:00.000Z,98209
2019-03-01T11:20:00.000Z,98198
2019-03-01T11:25:00.000Z,98195
2019-03-01T11:30:00.000Z,98206
2019-03-01T11:35:00.000Z,98212
2019-03-01T11:40:00.000Z,98199
2019-03-01T11:45:00.000Z,98200
2019-03-01T11:50:00.000Z,98189
2019-03-01T11:55:00.000Z,98199
2019-03-01T12:00:00.000Z,98182
2019-03-01T12:05:00.000Z,98185
2019-03-01T12:10:00.000Z,98159
2019-03-01T12:15:00.000Z,98165
2019-03-01T12:20:00.000Z,98161
2019-03-01T12:25:00.000Z,98153
2019-03-01T12:30:00.000Z,98169
2019-03-01T12:35:00.000Z,98171
2019-03-01T12:40:00.000Z,98165
2019-03-01T12:45:00.000Z,98162
2019-03-01T12:50:00.000Z,98142
2019-03-01T12:55:00.000Z,98141
2019-03-01T13:00:00.000Z,98149
2019-03-01T13:05:00.000Z,98130
2019-03-01T13:10:00.000Z,98146
2019-03-01T13:15:00.000Z,98144
2019-03-01T13:20:00.000Z,98125
2019-03-01T13:25:00.000Z,98123
2019-03-01T13:30:00.000Z,98118
2019-03-01T13:35:00.000Z,98128
2019-03-01T13:40:00.000Z,98116
2019-03-01T13:45:00.000Z,98118
2019-03-01T13:50:00.000Z,98122
2019-03-01T13:55:00.000Z,98114
2019-03-01T14:00:00.000Z,98107
2019-03-01T14:05:00.000Z,98111
2019-03-01T14:10:00.000Z,98109
2019-03-01T14:15:00.000Z,98101
2019-03-01T14:20:00.000Z,98108
2019-03-01T14:25:00.000Z,98090
2019-03-01T14:31:00.000Z,98103
2019-03-01T14:36:00.000Z,98121
2019-03-01T14:41:00.000Z,98117
2019-03-01T14:46:00.000Z,98132
2019-03-01T14:51:00.000Z,98124
2019-03-01T14:56:00.000Z,98142
2019-03-01T15:01:00.000Z,98140
2019-03-01T15:06:00.000Z,98114
2019-03-01T15:11:00.000Z,98125
2019-03-01T15:16:00.000Z,98115
2019-03-01T15:21:00.000Z,98116
2019-03-01T15:26:00.000Z,98102
2019-03-01T15:31:00.000Z,98129
2019-03-01T15:36:00.000Z,98134
2019-03-01T15:41:00.000Z,98119
2019-03-01T15:46:00.000Z,98126
2019-03-01T15:51:00.000Z,98111
2019-03-01T15:56:00.000Z,98112
2019-03-01T16:01:00.000Z,98104
2019-03-01T16:06:00.000Z,98111
2019-03-01T16:11:00.000Z,98098
2019-03-01T16:16:00.000Z,98119
2019-03-01T16:21:00.000Z,98099
2019-03-01T16:26:00.000Z,98088
2019-03-01T16:31:00.000Z,98097
2019-03-01T16:36:00.000Z,98113
2019-03-01T16:41:00.000Z,98123
2019-03-01T16:46:00.000Z,98137
2019-03-01T16:51:00.000Z,98128
2019-03-01T16:56:00.000Z,98130
2019-03-01T17:01:00.000Z,98142
2019-03-01T17:06:00.000Z,98143
2019-03-01T17:11:00.000Z,98142
2019-03-01T17:16:00.000Z,98146
2019-03-01T17:22:00.000Z,98162
2019-03-01T17:27:00.000Z,98167
2019-03-01T17:32:00.000Z,98175
2019-03-01T17:37:00.000Z,98189
2019-03-01T17:42:00.000Z,98200
2019-03-01T17:47:00.000Z,98199
2019-03-01T17:52:00.000Z,98205
2019-03-01T17:57:00.000Z,98205
2019-03-01T18:02:00.000Z,98216
2019-03-01T18:07:00.000Z,98232
2019-03-01T18:12:00.000Z,98244
2019-03-01T18:17:00.000Z,98238
2019-03-01T18:22:00.000Z,98259
2019-03-01T18:27:00.000Z,98268
2019-03-01T18:32:00.000Z,98259
2019-03-01T18:37:00.000Z,98272
2019-03-01T18:42:00.000Z,98263
2019-03-01T18:47:00.000Z,98250
2019-03-01T18:52:00.000Z,98253
2019-03-01T18:57:00.000Z,98242
2019-03-01T19:02:00.000Z,98248
2019-03-01T19:07:00.000Z,98226
2019-03-01T19:12:00.000Z,98220
2019-03-01T19:17:00.000Z,98232
2019-03-01T19:22:00.000Z,98214
2019-03-01T19:27:00.000Z,98229
2019-03-01T19:32:00.000Z,98224
2019-03-01T19:37:00.000Z,98239
2019-03-01T19:42:00.000Z,98236
2019-03-01T19:47:00.000Z,98241
2019-03-01T19:53:00.000Z,98257
2019-03-01T19:58:00.000Z,98255
2019-03-01T20:03:00.000Z,98254
2019-03-01T20:08:00.000Z,98254
2019-03-01T20:13:00.000Z,98249
2019-03-01T20:18:00.000Z,98254
2019-03-01T20:23:00.000Z,98264
2019-03-01T20:28:00.000Z,98281
2019-03-01T20:33:00.000Z,98280
2019-03-01T20:38:00.000Z,98279
2019-03-01T20:43:00.000Z,98285
2019-03-01T20:48:00.000Z,98293
2019-03-01T20:53:00.000Z,98292
2019-03-01T20:58:00.000Z,98298
2019-03-01T21:03:00.000Z,98295
2019-03-01T21:08:00.000Z,98295
2019-03-01T21:13:00.000Z,98307
2019-03-01T21:18:00.000Z,98303
2019-03-01T21:23:00.000Z,98313
2019-03-01T21:28:00.000Z,98323
2019-03-01T21:33:00.000Z,98304
2019-03-01T21:38:00.000Z,98319
2019-03-01T21:43:00.000Z,98333
2019-03-01T21:48:00.000Z,98319
2019-03-01T21:54:00.000Z,98324
2019-03-01T21:59:00.000Z,98325
2019-03-01T22:04:00.000Z,98325
2019-03-01T22:09:00.000Z,98338
2019-03-01T22:14:00.000Z,98345
2019-03-01T22:19:00.000Z,98341
2019-03-01T22:24:00.000Z,98343
2019-03-01T22:29:00.000Z,98347
2019-03-01T22:34:00.000Z,98354
2019-03-01T22:39:00.000Z,98359
2019-03-01T22:44:00.000Z,98367
2019-03-01T22:49:00.000Z,98358
2019-03-01T22:54:00.000Z,98359
2019-03-01T22:59:00.000Z,98359
2019-03-01T23:04:00.000Z,98353
2019-03-01T23:09:00.000Z,98364
2019-03-01T23:14:00.000Z,98358
2019-03-01T23:19:00.000Z,98374
2019-03-01T23:24:00.000Z,98367
2019-03-01T23:29:00.000Z,98382
2019-03-01T23:34:00.000Z,98393
2019-03-01T23:39:00.000Z,98395
2019-03-01T23:44:00.000Z,98394
2019-03-01T23:49:00.000Z,98405
2019-03-01T23:54:00.000Z,98408
2019-03-01T23:59:00.000Z,98416
